sensor_id;sensor_type;location;lat;lon;timestamp;temperature;humidity
10530;DHT22;5313;48.834;9.228;2022-10-31T00:00:54;11.80;99.90
10530;DHT22;5313;48.834;9.228;2022-10-31T00:03:20;11.90;99.90
10530;DHT22;5313;48.834;9.228;2022-10-31T00:05:47;11.80;99.90
10530;DHT22;5313;48.834;9.228;2022-10-31T00:08:13;11.80;99.90
10530;DHT22;5313;48.834;9.228;2022-10-31T00:10:42;11.70;99.90
10530;DHT22;5313;48.834;9.228;2022-10-31T00:13:08;11.80;99.90
10530;DHT22;5313;48.834;9.228;2022-10-31T00:15:35;11.70;99.90
10530;DHT22;5313;48.834;9.228;2022-10-31T00:18:02;11.60;99.90
10530;DHT22;5313;48.834;9.228;2022-10-31T00:20:27;11.70;99.90
10530;DHT22;5313;48.834;9.228;2022-10-31T00:22:53;11.70;99.90
10530;DHT22;5313;48.834;9.228;2022-10-31T00:25:18;11.70;99.90
10530;DHT22;5313;48.834;9.228;2022-10-31T00:27:45;11.70;99.90
10530;DHT22;5313;48.834;9.228;2022-10-31T00:30:11;11.60;99.90
10530;DHT22;5313;48.834;9.228;2022-10-31T00:32:37;11.70;99.90
10530;DHT22;5313;48.834;9.228;2022-10-31T00:35:02;11.60;99.90
10530;DHT22;5313;48.834;9.228;2022-10-31T00:37:28;11.70;99.90
10530;DHT22;5313;48.834;9.228;2022-10-31T00:39:53;11.70;99.90
10530;DHT22;5313;48.834;9.228;2022-10-31T00:42:19;11.60;99.90
10530;DHT22;5313;48.834;9.228;2022-10-31T00:44:44;11.60;99.90
10530;DHT22;5313;48.834;9.228;2022-10-31T00:47:10;11.70;99.90
10530;DHT22;5313;48.834;9.228;2022-10-31T00:49:35;11.60;99.90
10530;DHT22;5313;48.834;9.228;2022-10-31T00:52:01;11.70;99.90
10530;DHT22;5313;48.834;9.228;2022-10-31T00:54:26;11.70;99.90
10530;DHT22;5313;48.834;9.228;2022-10-31T00:56:52;11.70;99.90
10530;DHT22;5313;48.834;9.228;2022-10-31T00:59:18;11.70;99.90
10530;DHT22;5313;48.834;9.228;2022-10-31T01:01:43;11.70;99.90
10530;DHT22;5313;48.834;9.228;2022-10-31T01:04:09;11.70;99.90
10530;DHT22;5313;48.834;9.228;2022-10-31T01:06:34;11.60;99.90
10530;DHT22;5313;48.834;9.228;2022-10-31T01:09:00;11.60;99.90
10530;DHT22;5313;48.834;9.228;2022-10-31T01:11:25;11.60;99.90
10530;DHT22;5313;48.834;9.228;2022-10-31T01:13:52;11.60;99.90
10530;DHT22;5313;48.834;9.228;2022-10-31T01:16:20;11.60;99.90
10530;DHT22;5313;48.834;9.228;2022-10-31T01:18:47;11.50;99.90
10530;DHT22;5313;48.834;9.228;2022-10-31T01:21:15;11.70;99.90
10530;DHT22;5313;48.834;9.228;2022-10-31T01:23:41;11.60;99.90
10530;DHT22;5313;48.834;9.228;2022-10-31T01:26:18;11.60;99.90
10530;DHT22;5313;48.834;9.228;2022-10-31T01:28:53;11.70;99.90
10530;DHT22;5313;48.834;9.228;2022-10-31T01:31:21;11.70;99.90
10530;DHT22;5313;48.834;9.228;2022-10-31T01:33:47;11.80;99.90
10530;DHT22;5313;48.834;9.228;2022-10-31T01:36:18;11.80;99.90
10530;DHT22;5313;48.834;9.228;2022-10-31T01:38:45;11.80;99.90
10530;DHT22;5313;48.834;9.228;2022-10-31T01:41:15;11.70;99.90
10530;DHT22;5313;48.834;9.228;2022-10-31T01:43:55;11.70;99.90
10530;DHT22;5313;48.834;9.228;2022-10-31T01:46:48;11.60;99.90
10530;DHT22;5313;48.834;9.228;2022-10-31T01:49:31;11.60;99.90
10530;DHT22;5313;48.834;9.228;2022-10-31T01:52:11;11.70;99.90
10530;DHT22;5313;48.834;9.228;2022-10-31T01:54:41;11.60;99.90
10530;DHT22;5313;48.834;9.228;2022-10-31T01:57:10;11.50;99.90
10530;DHT22;5313;48.834;9.228;2022-10-31T01:59:41;11.60;99.90
10530;DHT22;5313;48.834;9.228;2022-10-31T02:02:07;11.60;99.90
10530;DHT22;5313;48.834;9.228;2022-10-31T02:04:34;11.60;99.90
10530;DHT22;5313;48.834;9.228;2022-10-31T02:07:07;11.60;99.90
10530;DHT22;5313;48.834;9.228;2022-10-31T02:09:35;11.50;99.90
10530;DHT22;5313;48.834;9.228;2022-10-31T02:12:02;11.50;99.90
10530;DHT22;5313;48.834;9.228;2022-10-31T02:14:29;11.40;99.90
10530;DHT22;5313;48.834;9.228;2022-10-31T02:16:56;11.40;99.90
10530;DHT22;5313;48.834;9.228;2022-10-31T02:19:30;11.50;99.90
10530;DHT22;5313;48.834;9.228;2022-10-31T02:22:05;11.50;99.90
10530;DHT22;5313;48.834;9.228;2022-10-31T02:30:11;11.50;99.90
10530;DHT22;5313;48.834;9.228;2022-10-31T02:33:06;11.40;99.90
10530;DHT22;5313;48.834;9.228;2022-10-31T02:41:00;11.40;99.90
10530;DHT22;5313;48.834;9.228;2022-10-31T02:43:58;11.50;99.90
10530;DHT22;5313;48.834;9.228;2022-10-31T02:46:48;11.40;99.90
10530;DHT22;5313;48.834;9.228;2022-10-31T02:49:26;11.40;99.90
10530;DHT22;5313;48.834;9.228;2022-10-31T02:51:52;11.40;99.90
10530;DHT22;5313;48.834;9.228;2022-10-31T02:54:21;11.30;99.90
10530;DHT22;5313;48.834;9.228;2022-10-31T02:56:47;11.30;99.90
10530;DHT22;5313;48.834;9.228;2022-10-31T02:59:14;11.30;99.90
10530;DHT22;5313;48.834;9.228;2022-10-31T03:02:14;11.10;99.90
10530;DHT22;5313;48.834;9.228;2022-10-31T03:07:42;11.20;99.90
10530;DHT22;5313;48.834;9.228;2022-10-31T03:10:45;11.10;99.90
10530;DHT22;5313;48.834;9.228;2022-10-31T03:13:09;11.00;99.90
10530;DHT22;5313;48.834;9.228;2022-10-31T03:15:48;11.00;99.90
10530;DHT22;5313;48.834;9.228;2022-10-31T03:18:33;11.00;99.90
10530;DHT22;5313;48.834;9.228;2022-10-31T03:21:05;11.00;99.90
10530;DHT22;5313;48.834;9.228;2022-10-31T03:23:35;11.00;99.90
10530;DHT22;5313;48.834;9.228;2022-10-31T03:26:05;11.00;99.90
10530;DHT22;5313;48.834;9.228;2022-10-31T03:28:38;10.90;99.90
10530;DHT22;5313;48.834;9.228;2022-10-31T03:31:05;10.80;99.90
10530;DHT22;5313;48.834;9.228;2022-10-31T03:33:35;10.80;99.90
10530;DHT22;5313;48.834;9.228;2022-10-31T03:36:04;10.80;99.90
10530;DHT22;5313;48.834;9.228;2022-10-31T03:38:31;10.70;99.90
10530;DHT22;5313;48.834;9.228;2022-10-31T03:40:58;10.70;99.90
10530;DHT22;5313;48.834;9.228;2022-10-31T03:43:30;10.80;99.90
10530;DHT22;5313;48.834;9.228;2022-10-31T03:45:57;10.80;99.90
10530;DHT22;5313;48.834;9.228;2022-10-31T03:48:24;10.80;99.90
10530;DHT22;5313;48.834;9.228;2022-10-31T03:51:11;10.80;99.90
10530;DHT22;5313;48.834;9.228;2022-10-31T03:53:55;10.80;99.90
10530;DHT22;5313;48.834;9.228;2022-10-31T03:56:35;10.90;99.90
10530;DHT22;5313;48.834;9.228;2022-10-31T03:59:05;10.80;99.90
10530;DHT22;5313;48.834;9.228;2022-10-31T04:01:36;10.70;99.90
10530;DHT22;5313;48.834;9.228;2022-10-31T04:04:04;10.60;99.90
10530;DHT22;5313;48.834;9.228;2022-10-31T04:06:31;10.60;99.90
10530;DHT22;5313;48.834;9.228;2022-10-31T04:09:01;10.60;99.90
10530;DHT22;5313;48.834;9.228;2022-10-31T04:11:30;10.50;99.90
10530;DHT22;5313;48.834;9.228;2022-10-31T04:13:58;10.50;99.90
10530;DHT22;5313;48.834;9.228;2022-10-31T04:16:26;10.50;99.90
10530;DHT22;5313;48.834;9.228;2022-10-31T04:18:52;10.50;99.90
10530;DHT22;5313;48.834;9.228;2022-10-31T04:21:17;10.60;99.90
10530;DHT22;5313;48.834;9.228;2022-10-31T04:23:43;10.50;99.90
10530;DHT22;5313;48.834;9.228;2022-10-31T04:26:11;10.50;99.90
10530;DHT22;5313;48.834;9.228;2022-10-31T04:28:37;10.50;99.90
10530;DHT22;5313;48.834;9.228;2022-10-31T04:31:03;10.60;99.90
10530;DHT22;5313;48.834;9.228;2022-10-31T04:33:28;10.60;99.90
10530;DHT22;5313;48.834;9.228;2022-10-31T04:35:54;10.50;99.90
10530;DHT22;5313;48.834;9.228;2022-10-31T04:38:19;10.40;99.90
10530;DHT22;5313;48.834;9.228;2022-10-31T04:40:45;10.30;99.90
10530;DHT22;5313;48.834;9.228;2022-10-31T04:43:11;10.30;99.90
10530;DHT22;5313;48.834;9.228;2022-10-31T04:45:37;10.30;99.90
10530;DHT22;5313;48.834;9.228;2022-10-31T04:48:03;10.20;99.90
10530;DHT22;5313;48.834;9.228;2022-10-31T04:50:28;10.10;99.90
10530;DHT22;5313;48.834;9.228;2022-10-31T04:52:54;10.10;99.90
10530;DHT22;5313;48.834;9.228;2022-10-31T04:55:19;10.20;99.90
10530;DHT22;5313;48.834;9.228;2022-10-31T04:57:47;10.20;99.90
10530;DHT22;5313;48.834;9.228;2022-10-31T05:00:14;10.20;99.90
10530;DHT22;5313;48.834;9.228;2022-10-31T05:02:47;10.20;99.90
10530;DHT22;5313;48.834;9.228;2022-10-31T05:05:15;10.10;99.90
10530;DHT22;5313;48.834;9.228;2022-10-31T05:07:43;10.10;99.90
10530;DHT22;5313;48.834;9.228;2022-10-31T05:10:10;10.20;99.90
10530;DHT22;5313;48.834;9.228;2022-10-31T05:12:36;10.10;99.90
10530;DHT22;5313;48.834;9.228;2022-10-31T05:15:03;10.10;99.90
10530;DHT22;5313;48.834;9.228;2022-10-31T05:17:30;10.10;99.90
10530;DHT22;5313;48.834;9.228;2022-10-31T05:19:56;10.10;99.90
10530;DHT22;5313;48.834;9.228;2022-10-31T05:22:22;10.10;99.90
10530;DHT22;5313;48.834;9.228;2022-10-31T05:24:47;10.10;99.90
10530;DHT22;5313;48.834;9.228;2022-10-31T05:27:13;10.10;99.90
10530;DHT22;5313;48.834;9.228;2022-10-31T05:29:38;10.00;99.90
10530;DHT22;5313;48.834;9.228;2022-10-31T05:32:04;10.00;99.90
10530;DHT22;5313;48.834;9.228;2022-10-31T05:34:29;10.00;99.90
10530;DHT22;5313;48.834;9.228;2022-10-31T05:36:55;10.00;99.90
10530;DHT22;5313;48.834;9.228;2022-10-31T05:39:20;10.00;99.90
10530;DHT22;5313;48.834;9.228;2022-10-31T05:41:46;10.00;99.90
10530;DHT22;5313;48.834;9.228;2022-10-31T05:44:11;10.00;99.90
10530;DHT22;5313;48.834;9.228;2022-10-31T05:46:37;10.10;99.90
10530;DHT22;5313;48.834;9.228;2022-10-31T05:49:02;10.10;99.90
10530;DHT22;5313;48.834;9.228;2022-10-31T05:51:28;10.10;99.90
10530;DHT22;5313;48.834;9.228;2022-10-31T05:53:53;10.00;99.90
10530;DHT22;5313;48.834;9.228;2022-10-31T05:56:19;10.10;99.90
10530;DHT22;5313;48.834;9.228;2022-10-31T05:58:44;10.00;99.90
10530;DHT22;5313;48.834;9.228;2022-10-31T06:01:10;10.00;99.90
10530;DHT22;5313;48.834;9.228;2022-10-31T06:03:35;10.00;99.90
10530;DHT22;5313;48.834;9.228;2022-10-31T06:06:01;10.00;99.90
10530;DHT22;5313;48.834;9.228;2022-10-31T06:08:26;10.10;99.90
10530;DHT22;5313;48.834;9.228;2022-10-31T06:10:52;10.10;99.90
10530;DHT22;5313;48.834;9.228;2022-10-31T06:13:19;10.10;99.90
10530;DHT22;5313;48.834;9.228;2022-10-31T06:15:44;10.20;99.90
10530;DHT22;5313;48.834;9.228;2022-10-31T06:18:10;10.20;99.90
10530;DHT22;5313;48.834;9.228;2022-10-31T06:20:35;10.20;99.90
10530;DHT22;5313;48.834;9.228;2022-10-31T06:23:02;10.10;99.90
10530;DHT22;5313;48.834;9.228;2022-10-31T06:25:28;10.20;99.90
10530;DHT22;5313;48.834;9.228;2022-10-31T06:27:54;10.10;99.90
10530;DHT22;5313;48.834;9.228;2022-10-31T06:30:19;10.10;99.90
10530;DHT22;5313;48.834;9.228;2022-10-31T06:32:45;10.10;99.90
10530;DHT22;5313;48.834;9.228;2022-10-31T06:35:10;10.20;99.90
10530;DHT22;5313;48.834;9.228;2022-10-31T06:37:36;10.20;99.90
10530;DHT22;5313;48.834;9.228;2022-10-31T06:40:02;10.20;99.90
10530;DHT22;5313;48.834;9.228;2022-10-31T06:42:28;10.10;99.90
10530;DHT22;5313;48.834;9.228;2022-10-31T06:44:53;10.10;99.90
10530;DHT22;5313;48.834;9.228;2022-10-31T06:47:19;10.20;99.90
10530;DHT22;5313;48.834;9.228;2022-10-31T06:49:44;10.20;99.90
10530;DHT22;5313;48.834;9.228;2022-10-31T06:52:10;10.20;99.90
10530;DHT22;5313;48.834;9.228;2022-10-31T06:54:35;10.20;99.90
10530;DHT22;5313;48.834;9.228;2022-10-31T06:57:01;10.20;99.90
10530;DHT22;5313;48.834;9.228;2022-10-31T06:59:26;10.20;99.90
10530;DHT22;5313;48.834;9.228;2022-10-31T07:01:52;10.30;99.90
10530;DHT22;5313;48.834;9.228;2022-10-31T07:04:17;10.20;99.90
10530;DHT22;5313;48.834;9.228;2022-10-31T07:06:43;10.30;99.90
10530;DHT22;5313;48.834;9.228;2022-10-31T07:09:08;10.40;99.90
10530;DHT22;5313;48.834;9.228;2022-10-31T07:11:34;10.40;99.90
10530;DHT22;5313;48.834;9.228;2022-10-31T07:13:59;10.40;99.90
10530;DHT22;5313;48.834;9.228;2022-10-31T07:16:25;10.40;99.90
10530;DHT22;5313;48.834;9.228;2022-10-31T07:18:51;10.30;99.90
10530;DHT22;5313;48.834;9.228;2022-10-31T07:21:16;10.20;99.90
10530;DHT22;5313;48.834;9.228;2022-10-31T07:23:41;10.30;99.90
10530;DHT22;5313;48.834;9.228;2022-10-31T07:26:08;10.40;99.90
10530;DHT22;5313;48.834;9.228;2022-10-31T07:28:34;10.40;99.90
10530;DHT22;5313;48.834;9.228;2022-10-31T07:31:00;10.40;99.90
10530;DHT22;5313;48.834;9.228;2022-10-31T07:33:25;10.50;99.90
10530;DHT22;5313;48.834;9.228;2022-10-31T07:35:52;10.60;99.90
10530;DHT22;5313;48.834;9.228;2022-10-31T07:38:17;10.70;99.90
10530;DHT22;5313;48.834;9.228;2022-10-31T07:40:43;10.80;99.90
10530;DHT22;5313;48.834;9.228;2022-10-31T07:43:10;10.80;99.90
10530;DHT22;5313;48.834;9.228;2022-10-31T07:45:36;10.80;99.90
10530;DHT22;5313;48.834;9.228;2022-10-31T07:48:02;11.00;99.90
10530;DHT22;5313;48.834;9.228;2022-10-31T07:50:31;11.00;99.90
10530;DHT22;5313;48.834;9.228;2022-10-31T07:53:07;11.20;99.90
10530;DHT22;5313;48.834;9.228;2022-10-31T07:55:33;11.20;99.90
10530;DHT22;5313;48.834;9.228;2022-10-31T07:58:03;11.30;99.90
10530;DHT22;5313;48.834;9.228;2022-10-31T08:00:29;11.30;99.90
10530;DHT22;5313;48.834;9.228;2022-10-31T08:02:59;11.40;99.90
10530;DHT22;5313;48.834;9.228;2022-10-31T08:05:25;11.40;99.90
10530;DHT22;5313;48.834;9.228;2022-10-31T08:07:50;11.60;99.90
10530;DHT22;5313;48.834;9.228;2022-10-31T08:10:16;11.60;99.90
10530;DHT22;5313;48.834;9.228;2022-10-31T08:12:41;11.80;99.90
10530;DHT22;5313;48.834;9.228;2022-10-31T08:15:07;11.80;99.90
10530;DHT22;5313;48.834;9.228;2022-10-31T08:17:36;11.90;99.90
10530;DHT22;5313;48.834;9.228;2022-10-31T08:20:03;12.10;99.90
10530;DHT22;5313;48.834;9.228;2022-10-31T08:22:29;12.20;99.90
10530;DHT22;5313;48.834;9.228;2022-10-31T08:24:54;12.20;99.90
10530;DHT22;5313;48.834;9.228;2022-10-31T08:27:20;12.30;99.90
10530;DHT22;5313;48.834;9.228;2022-10-31T08:29:45;12.40;99.90
10530;DHT22;5313;48.834;9.228;2022-10-31T08:32:11;12.50;99.90
10530;DHT22;5313;48.834;9.228;2022-10-31T08:34:36;12.40;99.90
10530;DHT22;5313;48.834;9.228;2022-10-31T08:37:02;12.20;99.90
10530;DHT22;5313;48.834;9.228;2022-10-31T08:39:27;12.30;99.90
10530;DHT22;5313;48.834;9.228;2022-10-31T08:41:53;12.40;99.90
10530;DHT22;5313;48.834;9.228;2022-10-31T08:44:18;12.40;99.90
10530;DHT22;5313;48.834;9.228;2022-10-31T08:46:44;12.40;99.90
10530;DHT22;5313;48.834;9.228;2022-10-31T08:49:09;12.40;99.90
10530;DHT22;5313;48.834;9.228;2022-10-31T08:51:35;12.50;99.90
10530;DHT22;5313;48.834;9.228;2022-10-31T08:54:00;12.50;99.90
10530;DHT22;5313;48.834;9.228;2022-10-31T08:56:26;12.60;99.90
10530;DHT22;5313;48.834;9.228;2022-10-31T08:58:53;12.60;99.90
10530;DHT22;5313;48.834;9.228;2022-10-31T09:01:18;12.70;99.90
10530;DHT22;5313;48.834;9.228;2022-10-31T09:03:44;12.70;99.90
10530;DHT22;5313;48.834;9.228;2022-10-31T09:06:10;12.90;99.90
10530;DHT22;5313;48.834;9.228;2022-10-31T09:08:35;13.00;99.90
10530;DHT22;5313;48.834;9.228;2022-10-31T09:11:02;13.00;99.90
10530;DHT22;5313;48.834;9.228;2022-10-31T09:13:28;12.90;99.90
10530;DHT22;5313;48.834;9.228;2022-10-31T09:15:56;13.00;99.90
10530;DHT22;5313;48.834;9.228;2022-10-31T09:18:23;13.00;99.90
10530;DHT22;5313;48.834;9.228;2022-10-31T09:20:50;13.30;99.90
10530;DHT22;5313;48.834;9.228;2022-10-31T09:23:20;13.40;99.90
10530;DHT22;5313;48.834;9.228;2022-10-31T09:25:48;13.40;99.90
10530;DHT22;5313;48.834;9.228;2022-10-31T09:28:15;13.40;99.90
10530;DHT22;5313;48.834;9.228;2022-10-31T09:30:41;13.50;99.90
10530;DHT22;5313;48.834;9.228;2022-10-31T09:33:10;13.40;99.90
10530;DHT22;5313;48.834;9.228;2022-10-31T09:35:36;13.50;99.90
10530;DHT22;5313;48.834;9.228;2022-10-31T09:38:04;13.60;99.90
10530;DHT22;5313;48.834;9.228;2022-10-31T09:48:34;13.50;99.90
10530;DHT22;5313;48.834;9.228;2022-10-31T09:51:30;13.60;99.90
10530;DHT22;5313;48.834;9.228;2022-10-31T09:54:11;13.60;99.90
10530;DHT22;5313;48.834;9.228;2022-10-31T09:56:38;13.70;99.90
10530;DHT22;5313;48.834;9.228;2022-10-31T09:59:06;13.80;99.90
10530;DHT22;5313;48.834;9.228;2022-10-31T10:04:43;13.80;99.90
10530;DHT22;5313;48.834;9.228;2022-10-31T10:10:25;13.90;99.90
10530;DHT22;5313;48.834;9.228;2022-10-31T10:13:13;14.50;99.90
10530;DHT22;5313;48.834;9.228;2022-10-31T10:15:48;14.60;99.90
10530;DHT22;5313;48.834;9.228;2022-10-31T10:19:21;14.70;99.90
10530;DHT22;5313;48.834;9.228;2022-10-31T10:32:50;15.00;99.90
10530;DHT22;5313;48.834;9.228;2022-10-31T10:40:52;15.20;99.90
10530;DHT22;5313;48.834;9.228;2022-10-31T10:43:29;15.40;99.90
10530;DHT22;5313;48.834;9.228;2022-10-31T10:51:35;15.50;99.90
10530;DHT22;5313;48.834;9.228;2022-10-31T10:59:30;15.60;99.90
10530;DHT22;5313;48.834;9.228;2022-10-31T11:01:56;15.60;99.90
10530;DHT22;5313;48.834;9.228;2022-10-31T11:04:34;15.60;99.90
10530;DHT22;5313;48.834;9.228;2022-10-31T11:07:03;15.60;99.90
10530;DHT22;5313;48.834;9.228;2022-10-31T11:09:29;15.70;99.90
10530;DHT22;5313;48.834;9.228;2022-10-31T11:11:55;15.80;99.90
10530;DHT22;5313;48.834;9.228;2022-10-31T11:14:22;15.90;99.90
10530;DHT22;5313;48.834;9.228;2022-10-31T11:16:55;15.80;99.90
10530;DHT22;5313;48.834;9.228;2022-10-31T11:19:31;15.90;99.90
10530;DHT22;5313;48.834;9.228;2022-10-31T11:22:13;15.90;99.90
10530;DHT22;5313;48.834;9.228;2022-10-31T11:24:41;16.00;99.90
10530;DHT22;5313;48.834;9.228;2022-10-31T11:27:25;16.20;99.90
10530;DHT22;5313;48.834;9.228;2022-10-31T11:29:51;16.10;99.90
10530;DHT22;5313;48.834;9.228;2022-10-31T11:32:27;16.20;99.90
10530;DHT22;5313;48.834;9.228;2022-10-31T11:34:56;16.80;99.90
10530;DHT22;5313;48.834;9.228;2022-10-31T11:37:27;17.20;99.90
10530;DHT22;5313;48.834;9.228;2022-10-31T11:39:55;17.30;99.90
10530;DHT22;5313;48.834;9.228;2022-10-31T11:42:25;17.40;99.90
10530;DHT22;5313;48.834;9.228;2022-10-31T11:44:53;17.60;99.90
10530;DHT22;5313;48.834;9.228;2022-10-31T11:47:28;17.40;99.90
10530;DHT22;5313;48.834;9.228;2022-10-31T11:49:54;17.20;99.90
10530;DHT22;5313;48.834;9.228;2022-10-31T11:52:23;16.90;99.90
10530;DHT22;5313;48.834;9.228;2022-10-31T11:55:01;16.90;99.90
10530;DHT22;5313;48.834;9.228;2022-10-31T11:57:33;17.00;99.90
10530;DHT22;5313;48.834;9.228;2022-10-31T12:00:03;16.80;99.90
10530;DHT22;5313;48.834;9.228;2022-10-31T12:02:29;16.90;99.90
10530;DHT22;5313;48.834;9.228;2022-10-31T12:05:10;17.30;99.90
10530;DHT22;5313;48.834;9.228;2022-10-31T12:07:42;17.10;99.90
10530;DHT22;5313;48.834;9.228;2022-10-31T12:10:12;17.10;99.90
10530;DHT22;5313;48.834;9.228;2022-10-31T12:12:54;17.10;99.90
10530;DHT22;5313;48.834;9.228;2022-10-31T12:15:32;17.00;99.90
10530;DHT22;5313;48.834;9.228;2022-10-31T12:28:52;17.10;99.90
10530;DHT22;5313;48.834;9.228;2022-10-31T12:40:32;17.30;99.90
10530;DHT22;5313;48.834;9.228;2022-10-31T12:43:45;17.40;99.90
10530;DHT22;5313;48.834;9.228;2022-10-31T12:46:29;17.70;99.90
10530;DHT22;5313;48.834;9.228;2022-10-31T12:49:09;17.30;99.90
10530;DHT22;5313;48.834;9.228;2022-10-31T12:57:25;16.90;99.90
10530;DHT22;5313;48.834;9.228;2022-10-31T13:00:01;16.90;99.90
10530;DHT22;5313;48.834;9.228;2022-10-31T13:02:40;16.90;99.90
10530;DHT22;5313;48.834;9.228;2022-10-31T13:05:40;17.00;99.90
10530;DHT22;5313;48.834;9.228;2022-10-31T13:08:08;17.10;99.90
10530;DHT22;5313;48.834;9.228;2022-10-31T13:10:42;17.00;99.90
10530;DHT22;5313;48.834;9.228;2022-10-31T13:15:56;17.00;99.90
10530;DHT22;5313;48.834;9.228;2022-10-31T13:18:32;17.00;99.90
10530;DHT22;5313;48.834;9.228;2022-10-31T13:21:01;17.00;99.90
10530;DHT22;5313;48.834;9.228;2022-10-31T13:23:32;16.90;99.90
10530;DHT22;5313;48.834;9.228;2022-10-31T13:26:03;16.90;99.90
10530;DHT22;5313;48.834;9.228;2022-10-31T13:31:27;16.90;99.90
10530;DHT22;5313;48.834;9.228;2022-10-31T13:33:56;16.90;99.90
10530;DHT22;5313;48.834;9.228;2022-10-31T13:36:32;16.90;99.90
10530;DHT22;5313;48.834;9.228;2022-10-31T13:39:55;16.90;99.90
10530;DHT22;5313;48.834;9.228;2022-10-31T13:45:15;16.90;99.90
10530;DHT22;5313;48.834;9.228;2022-10-31T13:47:42;17.10;99.90
10530;DHT22;5313;48.834;9.228;2022-10-31T13:52:47;17.70;99.90
10530;DHT22;5313;48.834;9.228;2022-10-31T13:58:30;18.20;99.90
10530;DHT22;5313;48.834;9.228;2022-10-31T14:01:21;18.40;99.90
10530;DHT22;5313;48.834;9.228;2022-10-31T14:03:59;18.40;99.90
10530;DHT22;5313;48.834;9.228;2022-10-31T14:06:45;18.50;99.90
10530;DHT22;5313;48.834;9.228;2022-10-31T14:12:28;18.00;99.90
10530;DHT22;5313;48.834;9.228;2022-10-31T14:15:12;17.70;99.90
10530;DHT22;5313;48.834;9.228;2022-10-31T14:17:52;17.90;99.90
10530;DHT22;5313;48.834;9.228;2022-10-31T14:22:47;18.10;99.90
10530;DHT22;5313;48.834;9.228;2022-10-31T14:25:34;17.90;99.90
10530;DHT22;5313;48.834;9.228;2022-10-31T14:28:03;18.00;99.90
10530;DHT22;5313;48.834;9.228;2022-10-31T14:30:54;17.70;99.90
10530;DHT22;5313;48.834;9.228;2022-10-31T14:33:22;17.60;99.90
10530;DHT22;5313;48.834;9.228;2022-10-31T14:36:19;17.60;99.90
10530;DHT22;5313;48.834;9.228;2022-10-31T14:47:07;17.60;99.90
10530;DHT22;5313;48.834;9.228;2022-10-31T14:52:26;17.60;99.90
10530;DHT22;5313;48.834;9.228;2022-10-31T14:54:54;17.50;99.90
10530;DHT22;5313;48.834;9.228;2022-10-31T14:57:32;17.40;99.90
10530;DHT22;5313;48.834;9.228;2022-10-31T15:00:03;17.40;99.90
10530;DHT22;5313;48.834;9.228;2022-10-31T15:03:11;17.40;99.90
10530;DHT22;5313;48.834;9.228;2022-10-31T15:05:42;17.40;99.90
10530;DHT22;5313;48.834;9.228;2022-10-31T15:08:25;17.20;99.90
10530;DHT22;5313;48.834;9.228;2022-10-31T15:10:52;17.10;99.90
10530;DHT22;5313;48.834;9.228;2022-10-31T15:13:20;17.10;99.90
10530;DHT22;5313;48.834;9.228;2022-10-31T15:15:47;19.20;99.90
10530;DHT22;5313;48.834;9.228;2022-10-31T15:18:17;17.10;99.90
10530;DHT22;5313;48.834;9.228;2022-10-31T15:20:45;17.20;99.90
10530;DHT22;5313;48.834;9.228;2022-10-31T15:23:16;18.70;99.90
10530;DHT22;5313;48.834;9.228;2022-10-31T15:25:42;17.10;99.90
10530;DHT22;5313;48.834;9.228;2022-10-31T15:28:19;17.00;99.90
10530;DHT22;5313;48.834;9.228;2022-10-31T15:30:54;16.90;99.90
10530;DHT22;5313;48.834;9.228;2022-10-31T15:33:23;16.80;99.90
10530;DHT22;5313;48.834;9.228;2022-10-31T15:36:01;16.60;99.90
10530;DHT22;5313;48.834;9.228;2022-10-31T15:38:28;16.50;99.90
10530;DHT22;5313;48.834;9.228;2022-10-31T15:41:03;16.40;99.90
10530;DHT22;5313;48.834;9.228;2022-10-31T15:43:34;16.20;99.90
10530;DHT22;5313;48.834;9.228;2022-10-31T15:46:00;16.00;99.90
10530;DHT22;5313;48.834;9.228;2022-10-31T15:48:27;16.00;99.90
10530;DHT22;5313;48.834;9.228;2022-10-31T15:50:55;15.90;99.90
10530;DHT22;5313;48.834;9.228;2022-10-31T15:53:25;15.90;99.90
10530;DHT22;5313;48.834;9.228;2022-10-31T15:55:56;15.90;99.90
10530;DHT22;5313;48.834;9.228;2022-10-31T15:58:23;15.90;99.90
10530;DHT22;5313;48.834;9.228;2022-10-31T16:01:05;15.80;99.90
10530;DHT22;5313;48.834;9.228;2022-10-31T16:03:32;15.60;99.90
10530;DHT22;5313;48.834;9.228;2022-10-31T16:06:03;15.40;99.90
10530;DHT22;5313;48.834;9.228;2022-10-31T16:11:00;15.30;99.90
10530;DHT22;5313;48.834;9.228;2022-10-31T16:13:30;15.30;99.90
10530;DHT22;5313;48.834;9.228;2022-10-31T16:16:15;15.30;99.90
10530;DHT22;5313;48.834;9.228;2022-10-31T16:18:42;15.30;99.90
10530;DHT22;5313;48.834;9.228;2022-10-31T16:21:08;15.30;99.90
10530;DHT22;5313;48.834;9.228;2022-10-31T16:23:37;17.90;99.90
10530;DHT22;5313;48.834;9.228;2022-10-31T16:26:07;15.10;99.90
10530;DHT22;5313;48.834;9.228;2022-10-31T16:28:33;14.90;99.90
10530;DHT22;5313;48.834;9.228;2022-10-31T16:30:59;14.90;99.90
10530;DHT22;5313;48.834;9.228;2022-10-31T16:33:29;14.80;99.90
10530;DHT22;5313;48.834;9.228;2022-10-31T16:38:53;14.70;99.90
10530;DHT22;5313;48.834;9.228;2022-10-31T16:41:19;14.60;99.90
10530;DHT22;5313;48.834;9.228;2022-10-31T16:43:45;14.70;99.90
10530;DHT22;5313;48.834;9.228;2022-10-31T16:46:27;14.60;99.90
10530;DHT22;5313;48.834;9.228;2022-10-31T16:48:53;14.70;99.90
10530;DHT22;5313;48.834;9.228;2022-10-31T16:51:19;14.70;99.90
10530;DHT22;5313;48.834;9.228;2022-10-31T16:53:45;14.70;99.90
10530;DHT22;5313;48.834;9.228;2022-10-31T16:56:20;14.60;99.90
10530;DHT22;5313;48.834;9.228;2022-10-31T16:58:47;14.50;99.90
10530;DHT22;5313;48.834;9.228;2022-10-31T17:01:12;14.60;99.90
10530;DHT22;5313;48.834;9.228;2022-10-31T17:03:38;14.60;99.90
10530;DHT22;5313;48.834;9.228;2022-10-31T17:06:04;14.50;99.90
10530;DHT22;5313;48.834;9.228;2022-10-31T17:08:30;14.40;99.90
10530;DHT22;5313;48.834;9.228;2022-10-31T17:10:56;14.20;99.90
10530;DHT22;5313;48.834;9.228;2022-10-31T17:13:25;14.20;99.90
10530;DHT22;5313;48.834;9.228;2022-10-31T17:15:54;16.70;99.90
10530;DHT22;5313;48.834;9.228;2022-10-31T17:18:21;15.00;99.90
10530;DHT22;5313;48.834;9.228;2022-10-31T17:20:47;14.10;99.90
10530;DHT22;5313;48.834;9.228;2022-10-31T17:23:14;14.10;99.90
10530;DHT22;5313;48.834;9.228;2022-10-31T17:25:40;13.90;99.90
10530;DHT22;5313;48.834;9.228;2022-10-31T17:28:10;13.80;99.90
10530;DHT22;5313;48.834;9.228;2022-10-31T17:30:37;13.70;99.90
10530;DHT22;5313;48.834;9.228;2022-10-31T17:33:02;13.70;99.90
10530;DHT22;5313;48.834;9.228;2022-10-31T17:35:28;13.70;99.90
10530;DHT22;5313;48.834;9.228;2022-10-31T17:37:53;13.80;99.90
10530;DHT22;5313;48.834;9.228;2022-10-31T17:40:20;13.70;99.90
10530;DHT22;5313;48.834;9.228;2022-10-31T17:42:51;13.70;99.90
10530;DHT22;5313;48.834;9.228;2022-10-31T17:45:17;13.60;99.90
10530;DHT22;5313;48.834;9.228;2022-10-31T17:47:48;13.50;99.90
10530;DHT22;5313;48.834;9.228;2022-10-31T17:50:15;13.50;99.90
10530;DHT22;5313;48.834;9.228;2022-10-31T17:52:41;13.50;99.90
10530;DHT22;5313;48.834;9.228;2022-10-31T17:55:07;13.60;99.90
10530;DHT22;5313;48.834;9.228;2022-10-31T17:57:34;13.60;99.90
10530;DHT22;5313;48.834;9.228;2022-10-31T18:00:00;13.60;99.90